createdAt,value
2019-06-07T00:00:53.560Z,14.33
2019-06-07T00:03:29.564Z,15.18
2019-06-07T00:05:54.453Z,14.78
2019-06-07T00:08:28.876Z,13.55
2019-06-07T00:10:56.479Z,12.75
2019-06-07T00:13:26.127Z,13.43
2019-06-07T00:15:55.804Z,13.75
2019-06-07T00:18:26.090Z,14.43
2019-06-07T00:20:56.674Z,13.13
2019-06-07T00:23:26.386Z,13.15
2019-06-07T00:25:56.278Z,13.40
2019-06-07T00:28:25.996Z,13.48
2019-06-07T00:30:55.751Z,14.07
2019-06-07T00:33:25.431Z,14.03
2019-06-07T00:35:54.967Z,13.45
2019-06-07T00:38:24.528Z,13.03
2019-06-07T00:40:54.237Z,14.20
2019-06-07T00:43:28.110Z,13.65
2019-06-07T00:45:54.873Z,13.48
2019-06-07T00:48:31.808Z,13.13
2019-06-07T00:50:55.837Z,14.28
2019-06-07T00:53:31.652Z,14.23
2019-06-07T00:55:56.573Z,15.00
2019-06-07T00:58:27.884Z,14.68
2019-06-07T01:00:57.635Z,14.33
2019-06-07T01:03:27.359Z,13.80
2019-06-07T01:05:57.015Z,14.40
2019-06-07T01:08:29.956Z,14.13
2019-06-07T01:10:57.918Z,13.60
2019-06-07T01:13:27.736Z,12.75
2019-06-07T01:15:57.362Z,12.78
2019-06-07T01:18:37.316Z,12.95
2019-06-07T01:20:59.441Z,13.10
2019-06-07T01:26:00.414Z,13.60
2019-06-07T01:28:30.382Z,14.57
2019-06-07T01:31:00.022Z,14.35
2019-06-07T01:33:49.908Z,14.25
2019-06-07T01:36:01.164Z,12.85
2019-06-07T01:38:32.114Z,14.60
2019-06-07T01:41:01.813Z,14.03
2019-06-07T01:43:31.426Z,14.00
2019-06-07T01:46:01.121Z,13.07
2019-06-07T01:48:48.454Z,15.18
2019-06-07T01:51:01.999Z,13.45
2019-06-07T01:53:31.831Z,13.90
2019-06-07T01:56:01.599Z,12.98
2019-06-07T01:58:31.406Z,13.78
2019-06-07T02:01:01.100Z,13.35
2019-06-07T02:03:33.095Z,14.67
2019-06-07T02:06:02.057Z,15.43
2019-06-07T02:08:34.294Z,15.50
2019-06-07T02:11:03.029Z,15.10
2019-06-07T02:13:32.714Z,15.63
2019-06-07T02:16:02.750Z,16.40
2019-06-07T02:18:34.692Z,15.25
2019-06-07T02:21:03.852Z,15.83
2019-06-07T02:23:33.814Z,16.25
2019-06-07T02:26:04.174Z,16.30
2019-06-07T02:28:44.226Z,15.10
2019-06-07T02:31:05.227Z,16.02
2019-06-07T02:33:40.020Z,16.52
2019-06-07T02:36:06.196Z,15.55
2019-06-07T02:38:37.420Z,15.78
2019-06-07T02:41:07.955Z,16.60
2019-06-07T02:43:37.672Z,15.75
2019-06-07T02:46:25.528Z,15.25
2019-06-07T02:48:40.658Z,15.45
2019-06-07T02:51:12.318Z,15.27
2019-06-07T02:53:41.959Z,15.68
2019-06-07T02:56:37.743Z,14.98
2019-06-07T02:58:43.053Z,15.53
2019-06-07T03:01:12.948Z,16.07
2019-06-07T03:03:42.595Z,17.32
2019-06-07T03:06:14.606Z,17.73
2019-06-07T03:08:47.012Z,20.92
2019-06-07T03:11:17.385Z,20.35
2019-06-07T03:13:49.279Z,21.15
2019-06-07T03:16:20.895Z,18.40
2019-06-07T03:18:52.162Z,19.77
2019-06-07T03:21:23.788Z,17.20
2019-06-07T03:23:56.408Z,17.55
2019-06-07T03:26:27.600Z,17.87
2019-06-07T03:28:57.959Z,16.77
2019-06-07T03:31:32.627Z,17.47
2019-06-07T03:34:00.590Z,15.60
2019-06-07T03:36:32.016Z,16.40
2019-06-07T03:39:01.565Z,17.27
2019-06-07T03:41:42.019Z,16.65
2019-06-07T03:44:04.255Z,16.37
2019-06-07T03:46:35.173Z,16.93
2019-06-07T03:49:05.200Z,16.93
2019-06-07T03:51:37.803Z,16.97
2019-06-07T03:54:05.978Z,16.95
2019-06-07T03:56:37.957Z,16.52
2019-06-07T03:59:07.143Z,16.30
2019-06-07T04:01:39.801Z,16.37
2019-06-07T04:04:07.945Z,15.98
2019-06-07T04:06:41.529Z,17.27
2019-06-07T04:09:08.729Z,17.42
2019-06-07T04:11:40.884Z,17.00
2019-06-07T04:14:10.619Z,17.55
2019-06-07T04:16:44.248Z,17.05
2019-06-07T04:19:11.662Z,17.12
2019-06-07T04:21:42.997Z,17.60
2019-06-07T04:24:12.425Z,17.27
2019-06-07T04:26:43.967Z,16.40
2019-06-07T04:31:44.388Z,17.07
2019-06-07T04:34:13.838Z,16.57
2019-06-07T04:36:56.449Z,17.23
2019-06-07T04:39:15.666Z,17.75
2019-06-07T04:41:47.203Z,16.80
2019-06-07T04:44:18.405Z,16.75
2019-06-07T04:46:51.190Z,17.73
2019-06-07T04:49:23.375Z,18.05
2019-06-07T04:51:54.949Z,18.87
2019-06-07T04:54:25.201Z,15.03
2019-06-07T04:56:54.633Z,15.70
2019-06-07T05:00:01.122Z,15.58
2019-06-07T05:01:55.339Z,15.58
2019-06-07T05:04:24.926Z,16.00
2019-06-07T05:06:54.495Z,15.80
2019-06-07T05:09:24.497Z,17.02
2019-06-07T05:11:54.074Z,16.73
2019-06-07T05:14:24.602Z,15.88
2019-06-07T05:16:54.099Z,14.40
2019-06-07T05:19:23.565Z,14.05
2019-06-07T05:22:04.285Z,13.10
2019-06-07T05:24:24.273Z,12.58
2019-06-07T05:26:53.767Z,13.05
2019-06-07T05:29:23.249Z,13.25
2019-06-07T05:31:53.750Z,12.23
2019-06-07T05:34:23.422Z,13.30
2019-06-07T05:37:10.508Z,12.18
2019-06-07T05:39:23.982Z,13.05
2019-06-07T05:41:53.443Z,12.82
2019-06-07T05:44:22.996Z,11.22
2019-06-07T05:46:52.477Z,11.60
2019-06-07T05:49:21.884Z,13.00
2019-06-07T05:51:51.508Z,12.65
2019-06-07T05:54:22.326Z,11.83
2019-06-07T05:56:51.933Z,12.55
2019-06-07T05:59:21.536Z,13.45
2019-06-07T06:02:00.234Z,13.15
2019-06-07T06:04:22.067Z,13.32
2019-06-07T06:06:51.544Z,13.75
2019-06-07T06:09:21.032Z,12.65
2019-06-07T06:12:01.856Z,12.45
2019-06-07T06:14:21.878Z,12.28
2019-06-07T06:16:51.673Z,12.98
2019-06-07T06:19:21.146Z,13.38
2019-06-07T06:21:50.777Z,13.78
2019-06-07T06:24:20.309Z,13.25
2019-06-07T06:26:54.839Z,13.60
2019-06-07T06:29:21.155Z,12.68
2019-06-07T06:32:39.858Z,13.95
2019-06-07T06:34:21.779Z,13.90
2019-06-07T06:36:51.482Z,13.18
2019-06-07T06:39:21.115Z,14.55
2019-06-07T06:42:00.999Z,14.53
2019-06-07T06:44:23.175Z,12.50
2019-06-07T06:46:57.545Z,12.40
2019-06-07T06:49:23.752Z,13.65
2019-06-07T06:51:53.858Z,12.30
2019-06-07T06:54:40.241Z,12.20
2019-06-07T06:57:17.265Z,12.35
2019-06-07T06:59:38.643Z,12.63
2019-06-07T07:01:57.596Z,13.05
2019-06-07T07:04:27.893Z,12.73
2019-06-07T07:06:57.943Z,12.65
2019-06-07T07:09:28.967Z,12.68
2019-06-07T07:12:11.100Z,12.60
2019-06-07T07:14:29.780Z,13.38
2019-06-07T07:16:59.430Z,13.93
2019-06-07T07:19:30.463Z,12.20
2019-06-07T07:22:01.365Z,12.05
2019-06-07T07:24:31.241Z,12.20
2019-06-07T07:27:00.929Z,12.82
2019-06-07T07:29:30.578Z,12.25
2019-06-07T07:32:00.251Z,12.82
2019-06-07T07:34:36.034Z,12.82
2019-06-07T07:37:01.211Z,11.70
2019-06-07T07:39:31.916Z,12.13
2019-06-07T07:42:20.101Z,12.33
2019-06-07T07:44:33.403Z,12.33
2019-06-07T07:47:02.900Z,11.85
2019-06-07T07:49:32.496Z,11.78
2019-06-07T07:52:02.072Z,10.30
2019-06-07T07:54:31.722Z,11.00
2019-06-07T07:57:01.345Z,10.93
2019-06-07T07:59:41.710Z,10.75
2019-06-07T08:02:02.106Z,12.58
2019-06-07T08:05:12.821Z,12.37
2019-06-07T08:07:03.745Z,12.25
2019-06-07T08:09:33.282Z,12.65
2019-06-07T08:12:02.806Z,12.70
2019-06-07T08:14:34.536Z,11.75
2019-06-07T08:17:04.197Z,11.22
2019-06-07T08:19:33.809Z,12.37
2019-06-07T08:22:05.877Z,12.35
2019-06-07T08:24:35.505Z,13.10
2019-06-07T08:27:25.342Z,13.68
2019-06-07T08:29:44.987Z,12.80
2019-06-07T08:32:08.624Z,13.35
2019-06-07T08:34:38.149Z,11.85
2019-06-07T08:37:07.748Z,12.78
2019-06-07T08:39:37.349Z,13.80
2019-06-07T08:42:17.517Z,13.53
2019-06-07T08:44:39.221Z,13.00
2019-06-07T08:47:20.090Z,12.07
2019-06-07T08:49:39.978Z,13.18
2019-06-07T08:52:12.047Z,13.30
2019-06-07T08:54:40.826Z,13.43
2019-06-07T08:57:20.773Z,13.48
2019-06-07T08:59:41.424Z,11.57
2019-06-07T09:02:23.474Z,13.20
2019-06-07T09:04:43.241Z,12.18
2019-06-07T09:07:19.680Z,11.85
2019-06-07T09:09:44.140Z,11.33
2019-06-07T09:12:14.959Z,11.50
2019-06-07T09:14:59.459Z,11.45
2019-06-07T09:17:15.731Z,11.60
2019-06-07T09:19:45.230Z,11.22
2019-06-07T09:22:14.793Z,11.08
2019-06-07T09:24:44.374Z,11.95
2019-06-07T09:27:14.658Z,10.95
2019-06-07T09:29:44.794Z,10.58
2019-06-07T09:32:18.270Z,10.10
2019-06-07T09:34:45.699Z,10.43
2019-06-07T09:38:02.640Z,10.18
2019-06-07T09:39:47.382Z,10.58
2019-06-07T09:42:16.975Z,11.10
2019-06-07T09:44:46.516Z,10.65
2019-06-07T09:47:31.019Z,10.95
2019-06-07T09:49:47.231Z,11.53
2019-06-07T09:52:16.748Z,10.70
2019-06-07T09:57:18.088Z,11.55
2019-06-07T09:59:48.933Z,10.82
2019-06-07T10:02:18.371Z,10.45
2019-06-07T10:04:47.944Z,10.03
2019-06-07T10:07:31.395Z,10.18
2019-06-07T10:12:19.927Z,9.55
2019-06-07T10:14:49.390Z,9.38
2019-06-07T10:17:19.050Z,10.30
2019-06-07T10:19:48.614Z,8.70
2019-06-07T10:22:18.191Z,9.80
2019-06-07T10:24:47.881Z,9.18
2019-06-07T10:27:17.310Z,9.75
2019-06-07T10:29:47.087Z,9.50
2019-06-07T10:32:16.590Z,9.65
2019-06-07T10:34:46.103Z,9.08
2019-06-07T10:37:16.020Z,9.83
2019-06-07T10:39:48.918Z,9.40
2019-06-07T10:42:16.665Z,9.40
2019-06-07T10:44:46.159Z,8.85
2019-06-07T10:47:15.794Z,8.98
2019-06-07T10:49:45.487Z,8.00
2019-06-07T10:52:14.881Z,8.38
2019-06-07T10:54:47.754Z,7.87
2019-06-07T10:57:17.276Z,8.28
2019-06-07T10:59:46.878Z,7.42
2019-06-07T11:02:16.278Z,7.75
2019-06-07T11:04:45.751Z,7.55
2019-06-07T11:07:15.288Z,7.20
2019-06-07T11:09:46.613Z,7.45
2019-06-07T11:12:16.721Z,7.08
2019-06-07T11:14:47.278Z,7.10
2019-06-07T11:17:17.892Z,7.42
2019-06-07T11:19:47.477Z,7.45
2019-06-07T11:22:18.506Z,7.40
2019-06-07T11:24:48.162Z,6.40
2019-06-07T11:27:19.496Z,6.42
2019-06-07T11:29:48.964Z,6.90
2019-06-07T11:32:18.852Z,6.20
2019-06-07T11:34:49.530Z,6.58
2019-06-07T11:37:19.195Z,5.78
2019-06-07T11:39:48.693Z,6.40
2019-06-07T11:42:20.085Z,5.53
2019-06-07T11:44:56.654Z,7.08
2019-06-07T11:47:20.319Z,6.45
2019-06-07T11:49:49.679Z,7.30
2019-06-07T11:52:19.271Z,6.80
2019-06-07T11:54:48.674Z,6.90
2019-06-07T11:57:18.077Z,6.00
2019-06-07T11:59:47.575Z,5.30
2019-06-07T12:02:17.593Z,6.42
2019-06-07T12:04:47.353Z,7.47
2019-06-07T12:07:17.660Z,5.30
2019-06-07T12:09:56.562Z,8.43
2019-06-07T12:12:20.577Z,5.33
2019-06-07T12:14:50.137Z,6.05
2019-06-07T12:17:21.584Z,5.30
2019-06-07T12:19:50.986Z,5.15
2019-06-07T12:22:21.297Z,4.75
2019-06-07T12:24:50.835Z,5.00
2019-06-07T12:27:20.894Z,6.80
2019-06-07T12:29:51.463Z,7.50
2019-06-07T12:32:21.583Z,5.97
2019-06-07T12:34:51.088Z,5.25
2019-06-07T12:37:25.282Z,5.67
2019-06-07T12:39:51.646Z,5.78
2019-06-07T12:42:21.063Z,5.03
2019-06-07T12:44:50.438Z,5.17
2019-06-07T12:47:21.007Z,14.18
2019-06-07T12:49:50.590Z,24.15
2019-06-07T12:52:21.651Z,8.30
2019-06-07T12:54:51.045Z,4.80
2019-06-07T12:57:22.036Z,5.17
2019-06-07T12:59:51.706Z,4.95
2019-06-07T13:02:22.154Z,5.28
2019-06-07T13:04:52.419Z,5.65
2019-06-07T13:07:22.554Z,6.55
2019-06-07T13:09:52.396Z,5.22
2019-06-07T13:12:22.045Z,5.10
2019-06-07T13:14:51.458Z,16.35
2019-06-07T13:17:22.210Z,5.10
2019-06-07T13:19:51.810Z,5.70
2019-06-07T13:22:22.284Z,4.65
2019-06-07T13:24:51.931Z,4.62
2019-06-07T13:27:22.504Z,5.33
2019-06-07T13:29:52.200Z,5.67
2019-06-07T13:32:23.720Z,5.28
2019-06-07T13:34:53.353Z,4.00
2019-06-07T13:37:23.382Z,4.03
2019-06-07T13:39:53.058Z,4.45
2019-06-07T13:42:22.940Z,7.67
2019-06-07T13:44:52.439Z,4.65
2019-06-07T13:47:23.100Z,4.65
2019-06-07T13:49:55.094Z,5.08
2019-06-07T13:52:23.855Z,3.90
2019-06-07T13:54:53.404Z,4.78
2019-06-07T13:57:24.396Z,4.15
2019-06-07T13:59:54.045Z,7.10
2019-06-07T14:02:25.588Z,13.13
2019-06-07T14:04:54.689Z,4.60
2019-06-07T14:07:26.401Z,3.98
2019-06-07T14:09:55.425Z,6.03
2019-06-07T14:12:26.267Z,6.33
2019-06-07T14:14:56.249Z,4.15
2019-06-07T14:17:25.803Z,3.92
2019-06-07T14:19:55.229Z,3.95
2019-06-07T14:22:24.895Z,4.20
2019-06-07T14:24:54.421Z,4.05
2019-06-07T14:27:23.885Z,3.72
2019-06-07T14:30:07.911Z,3.87
2019-06-07T14:32:37.519Z,4.20
2019-06-07T14:35:07.807Z,3.67
2019-06-07T14:37:37.722Z,3.67
2019-06-07T14:40:08.978Z,6.17
2019-06-07T14:42:38.630Z,3.77
2019-06-07T14:45:09.179Z,3.98
2019-06-07T14:47:38.770Z,3.75
2019-06-07T14:50:11.255Z,3.60
2019-06-07T14:52:41.065Z,3.80
2019-06-07T14:55:11.058Z,5.35
2019-06-07T14:57:41.199Z,3.72
2019-06-07T15:00:13.151Z,3.90
2019-06-07T15:02:42.889Z,3.80
2019-06-07T15:05:12.797Z,4.17
2019-06-07T15:07:42.289Z,4.05
2019-06-07T15:10:12.216Z,3.98
2019-06-07T15:12:43.750Z,3.95
2019-06-07T15:15:13.401Z,4.22
2019-06-07T15:17:44.863Z,4.10
2019-06-07T15:20:14.387Z,3.70
2019-06-07T15:22:43.830Z,4.10
2019-06-07T15:25:13.488Z,3.83
2019-06-07T15:27:42.987Z,4.00
2019-06-07T15:30:12.534Z,3.87
2019-06-07T15:32:41.934Z,3.83
2019-06-07T15:35:11.709Z,3.55
2019-06-07T15:37:41.137Z,3.72
2019-06-07T15:40:12.426Z,4.10
2019-06-07T15:42:52.046Z,3.90
2019-06-07T15:45:13.151Z,3.50
2019-06-07T15:47:42.654Z,3.62
2019-06-07T15:50:12.630Z,3.80
2019-06-07T15:52:43.288Z,4.03
2019-06-07T15:55:15.178Z,3.62
2019-06-07T15:57:44.598Z,3.80
2019-06-07T16:00:16.201Z,4.12
2019-06-07T16:02:45.728Z,4.25
2019-06-07T16:05:16.158Z,3.80
2019-06-07T16:07:46.890Z,4.22
2019-06-07T16:10:16.763Z,4.12
2019-06-07T16:13:00.860Z,4.37
2019-06-07T16:15:30.513Z,4.60
2019-06-07T16:17:59.910Z,5.33
2019-06-07T16:20:29.382Z,6.40
2019-06-07T16:22:58.837Z,4.25
2019-06-07T16:25:28.356Z,3.83
2019-06-07T16:27:57.920Z,4.92
2019-06-07T16:30:27.503Z,4.55
2019-06-07T16:32:57.053Z,5.50
2019-06-07T16:35:26.707Z,5.45
2019-06-07T16:37:56.211Z,6.08
2019-06-07T16:40:25.650Z,5.12
2019-06-07T16:42:55.123Z,5.08
2019-06-07T16:45:25.230Z,4.15
2019-06-07T16:47:54.826Z,4.17
2019-06-07T16:50:24.391Z,3.80
2019-06-07T16:52:53.818Z,3.60
2019-06-07T16:55:23.418Z,4.15
2019-06-07T16:57:52.866Z,20.82
2019-06-07T17:00:23.987Z,9.10
2019-06-07T17:02:53.444Z,4.45
2019-06-07T17:05:23.120Z,23.73
2019-06-07T17:07:52.588Z,8.05
2019-06-07T17:10:22.139Z,14.70
2019-06-07T17:12:51.867Z,23.18
2019-06-07T17:15:22.552Z,15.32
2019-06-07T17:17:52.234Z,4.30
2019-06-07T17:20:22.190Z,6.30
2019-06-07T17:22:51.683Z,5.83
2019-06-07T17:25:21.493Z,6.78
2019-06-07T17:27:51.007Z,4.50
2019-06-07T17:30:21.000Z,4.30
2019-06-07T17:32:58.514Z,5.87
2019-06-07T17:35:21.780Z,35.17
2019-06-07T17:37:51.594Z,31.95
2019-06-07T17:40:22.717Z,12.73
2019-06-07T17:42:52.120Z,5.33
2019-06-07T17:45:22.034Z,10.32
2019-06-07T17:47:52.104Z,8.45
2019-06-07T17:50:21.827Z,10.72
2019-06-07T17:52:52.097Z,6.65
2019-06-07T17:55:21.905Z,8.83
2019-06-07T17:57:52.595Z,23.00
2019-06-07T18:00:33.320Z,51.15
2019-06-07T18:02:55.232Z,12.33
2019-06-07T18:05:24.949Z,16.60
2019-06-07T18:07:56.721Z,5.75
2019-06-07T18:10:29.267Z,6.22
2019-06-07T18:12:58.966Z,6.15
2019-06-07T18:15:31.851Z,6.50
2019-06-07T18:18:01.596Z,6.72
2019-06-07T18:20:31.197Z,6.95
2019-06-07T18:23:00.802Z,7.78
2019-06-07T18:25:30.612Z,7.05
2019-06-07T18:28:00.229Z,7.17
2019-06-07T18:30:30.236Z,17.05
2019-06-07T18:32:59.669Z,7.15
2019-06-07T18:35:29.342Z,13.25
2019-06-07T18:37:59.329Z,110.50
2019-06-07T18:40:28.970Z,125.40
2019-06-07T18:42:59.516Z,123.30
2019-06-07T18:45:29.122Z,57.35
2019-06-07T18:47:58.644Z,87.97
2019-06-07T18:50:28.221Z,32.85
2019-06-07T18:52:59.042Z,21.30
2019-06-07T18:55:28.856Z,11.28
2019-06-07T18:57:58.885Z,17.85
2019-06-07T19:00:28.579Z,10.32
2019-06-07T19:02:58.231Z,17.85
2019-06-07T19:05:27.929Z,73.95
2019-06-07T19:07:59.762Z,49.08
2019-06-07T19:10:29.232Z,85.87
2019-06-07T19:13:00.371Z,19.92
2019-06-07T19:15:31.786Z,41.25
2019-06-07T19:18:01.391Z,33.30
2019-06-07T19:20:30.965Z,35.45
2019-06-07T19:23:00.625Z,42.33
2019-06-07T19:25:30.285Z,39.53
2019-06-07T19:28:01.042Z,41.15
2019-06-07T19:30:30.936Z,62.00
2019-06-07T19:33:01.512Z,58.28
2019-06-07T19:35:31.266Z,34.58
2019-06-07T19:38:02.001Z,65.78
2019-06-07T19:40:33.878Z,41.28
2019-06-07T19:43:04.038Z,78.00
2019-06-07T19:45:34.767Z,37.67
2019-06-07T19:48:05.118Z,22.32
2019-06-07T19:50:34.729Z,32.05
2019-06-07T19:53:04.468Z,31.42
2019-06-07T19:55:34.077Z,28.70
2019-06-07T19:58:03.986Z,23.10
2019-06-07T20:00:33.738Z,14.60
2019-06-07T20:03:04.500Z,25.97
2019-06-07T20:05:34.481Z,19.80
2019-06-07T20:08:04.929Z,21.57
2019-06-07T20:10:34.777Z,11.15
2019-06-07T20:13:05.235Z,20.17
2019-06-07T20:15:34.938Z,13.43
2019-06-07T20:18:07.717Z,9.88
2019-06-07T20:20:37.546Z,11.00
2019-06-07T20:23:07.511Z,13.93
2019-06-07T20:25:37.243Z,43.20
2019-06-07T20:28:06.894Z,38.65
2019-06-07T20:30:36.928Z,42.27
2019-06-07T20:33:08.082Z,70.92
2019-06-07T20:35:37.919Z,28.02
2019-06-07T20:38:07.402Z,13.32
2019-06-07T20:40:37.025Z,9.08
2019-06-07T20:43:08.125Z,7.92
2019-06-07T20:45:37.893Z,8.18
2019-06-07T20:48:08.489Z,8.30
2019-06-07T20:50:38.292Z,8.25
2019-06-07T20:53:09.235Z,7.80
2019-06-07T20:55:38.944Z,7.97
2019-06-07T20:58:09.537Z,7.90
2019-06-07T21:00:39.101Z,7.72
2019-06-07T21:03:09.644Z,8.28
2019-06-07T21:05:39.383Z,8.55
2019-06-07T21:08:11.515Z,8.53
2019-06-07T21:10:40.089Z,9.08
2019-06-07T21:13:10.238Z,9.03
2019-06-07T21:15:48.352Z,9.20
2019-06-07T21:18:19.174Z,8.90
2019-06-07T21:20:42.835Z,8.78
2019-06-07T21:23:12.440Z,8.98
2019-06-07T21:25:43.055Z,10.18
2019-06-07T21:28:12.769Z,9.40
2019-06-07T21:30:42.548Z,10.32
2019-06-07T21:33:12.262Z,9.45
2019-06-07T21:35:42.640Z,10.10
2019-06-07T21:38:13.180Z,10.00
2019-06-07T21:40:42.824Z,9.73
2019-06-07T21:43:12.722Z,10.35
2019-06-07T21:45:42.825Z,10.08
2019-06-07T21:48:14.210Z,10.25
2019-06-07T21:50:44.245Z,9.88
2019-06-07T21:53:15.776Z,10.28
2019-06-07T21:55:45.523Z,11.12
2019-06-07T21:58:15.203Z,10.58
2019-06-07T22:00:48.140Z,10.55
2019-06-07T22:03:18.211Z,11.08
2019-06-07T22:05:49.395Z,11.68
2019-06-07T22:08:19.291Z,11.45
2019-06-07T22:10:48.801Z,12.43
2019-06-07T22:13:19.547Z,13.20
2019-06-07T22:15:48.983Z,17.82
2019-06-07T22:18:20.746Z,22.55
2019-06-07T22:20:50.725Z,21.30
2019-06-07T22:23:20.275Z,23.22
2019-06-07T22:25:49.880Z,19.55
2019-06-07T22:28:19.547Z,19.00
2019-06-07T22:30:50.509Z,16.65
2019-06-07T22:33:20.116Z,14.03
2019-06-07T22:35:49.692Z,11.45
2019-06-07T22:38:19.230Z,14.47
2019-06-07T22:40:48.810Z,14.40
2019-06-07T22:43:19.250Z,13.00
2019-06-07T22:45:49.150Z,13.70
2019-06-07T22:48:18.635Z,12.45
2019-06-07T22:50:48.287Z,11.85
2019-06-07T22:53:17.853Z,13.13
2019-06-07T22:55:49.211Z,12.90
2019-06-07T22:58:19.070Z,13.43
2019-06-07T23:00:48.692Z,14.65
2019-06-07T23:03:19.109Z,15.90
2019-06-07T23:05:48.917Z,13.48
2019-06-07T23:08:19.080Z,14.33
2019-06-07T23:10:48.731Z,14.70
2019-06-07T23:13:19.561Z,13.60
2019-06-07T23:15:49.319Z,14.18
2019-06-07T23:18:19.763Z,12.85
2019-06-07T23:20:49.559Z,14.38
2019-06-07T23:23:20.034Z,13.32
2019-06-07T23:25:49.651Z,14.73
2019-06-07T23:28:20.578Z,13.98
2019-06-07T23:30:50.264Z,13.40
2019-06-07T23:33:21.087Z,13.83
2019-06-07T23:35:50.596Z,13.30
2019-06-07T23:38:21.208Z,14.85
2019-06-07T23:40:50.934Z,13.75
2019-06-07T23:43:21.569Z,13.53
2019-06-07T23:45:51.290Z,14.20
2019-06-07T23:48:21.623Z,17.60
2019-06-07T23:50:51.199Z,19.50
2019-06-07T23:53:22.039Z,18.92
2019-06-07T23:55:51.852Z,19.82
2019-06-07T23:58:22.226Z,19.77
